You are not logged in, Click here to log in
阿道弗·蘇亞雷斯馬德里-巴拉哈斯機場MAD / LEMD 西班牙首都馬德里的主要國際機場
ICAO: LEMD Country: 西班牙首都馬德里的主要國際機場
Latitude: 40.4936 Longitude: -3.56676
Total Arrivals: 7 Total Departures: 6
Latest Arrival: BA458 (EGLL-LEMD)Allen. Lee Latest Departure: IB1490 (LEMD-LSGG)Allen. Lee
Scenery:
METAR : LEMD 110300Z VRB02KT CAVOK 22/13 Q1017 NOSIG

阿道弗·蘇亞雷斯馬德里-巴拉哈斯機場MAD

You are accessing this site from IP address 34.229.119.29. Virtual Airline. CMS by phpVMS.Website designed by Zumeweb and edited by Theo Bearman.
There is 1 User(s) Online: | Lun Wang | and 16 Guest(s) Online.
All information on this site is for fight simulation purposes only. This site is for flight logging for pilots of Virtual Airline&模擬飛行論壇 FlySim only.